sensor_id;sensor_type;location;lat;lon;timestamp;temperature;humidity
13982;DHT22;7065;50.880;5.502;2023-07-13T00:00:24;15.40;99.90
13982;DHT22;7065;50.880;5.502;2023-07-13T00:02:50;15.40;99.90
13982;DHT22;7065;50.880;5.502;2023-07-13T00:05:22;15.40;99.90
13982;DHT22;7065;50.880;5.502;2023-07-13T00:07:50;15.30;99.90
13982;DHT22;7065;50.880;5.502;2023-07-13T00:10:16;15.30;99.90
13982;DHT22;7065;50.880;5.502;2023-07-13T00:12:41;15.30;99.90
13982;DHT22;7065;50.880;5.502;2023-07-13T00:15:13;15.30;99.90
13982;DHT22;7065;50.880;5.502;2023-07-13T00:17:39;15.20;99.90
13982;DHT22;7065;50.880;5.502;2023-07-13T00:20:06;15.20;99.90
13982;DHT22;7065;50.880;5.502;2023-07-13T00:22:32;15.20;99.90
13982;DHT22;7065;50.880;5.502;2023-07-13T00:24:58;15.20;99.90
13982;DHT22;7065;50.880;5.502;2023-07-13T00:27:24;15.20;99.90
13982;DHT22;7065;50.880;5.502;2023-07-13T00:29:52;15.10;99.90
13982;DHT22;7065;50.880;5.502;2023-07-13T00:32:18;15.10;99.90
13982;DHT22;7065;50.880;5.502;2023-07-13T00:34:44;15.10;99.90
13982;DHT22;7065;50.880;5.502;2023-07-13T00:37:10;15.10;99.90
13982;DHT22;7065;50.880;5.502;2023-07-13T00:39:36;15.00;99.90
13982;DHT22;7065;50.880;5.502;2023-07-13T00:42:03;15.00;99.90
13982;DHT22;7065;50.880;5.502;2023-07-13T00:44:29;15.00;99.90
13982;DHT22;7065;50.880;5.502;2023-07-13T00:46:54;15.00;99.90
13982;DHT22;7065;50.880;5.502;2023-07-13T00:49:22;15.00;99.90
13982;DHT22;7065;50.880;5.502;2023-07-13T00:51:54;15.00;99.90
13982;DHT22;7065;50.880;5.502;2023-07-13T00:54:41;15.00;99.90
13982;DHT22;7065;50.880;5.502;2023-07-13T00:57:11;15.00;99.90
13982;DHT22;7065;50.880;5.502;2023-07-13T00:59:40;15.00;99.90
13982;DHT22;7065;50.880;5.502;2023-07-13T01:02:07;15.00;99.90
13982;DHT22;7065;50.880;5.502;2023-07-13T01:04:33;15.00;99.90
13982;DHT22;7065;50.880;5.502;2023-07-13T01:06:58;14.90;99.90
13982;DHT22;7065;50.880;5.502;2023-07-13T01:09:26;14.90;99.90
13982;DHT22;7065;50.880;5.502;2023-07-13T01:11:52;14.80;99.90
13982;DHT22;7065;50.880;5.502;2023-07-13T01:14:17;14.80;99.90
13982;DHT22;7065;50.880;5.502;2023-07-13T01:16:45;14.70;99.90
13982;DHT22;7065;50.880;5.502;2023-07-13T01:22:05;14.70;99.90
13982;DHT22;7065;50.880;5.502;2023-07-13T01:24:35;14.70;99.90
13982;DHT22;7065;50.880;5.502;2023-07-13T01:27:02;14.70;99.90
13982;DHT22;7065;50.880;5.502;2023-07-13T01:29:28;14.70;99.90
13982;DHT22;7065;50.880;5.502;2023-07-13T01:31:53;14.70;99.90
13982;DHT22;7065;50.880;5.502;2023-07-13T01:34:19;14.60;99.90
13982;DHT22;7065;50.880;5.502;2023-07-13T01:36:45;14.60;99.90
13982;DHT22;7065;50.880;5.502;2023-07-13T01:39:10;14.60;99.90
13982;DHT22;7065;50.880;5.502;2023-07-13T01:41:36;14.60;99.90
13982;DHT22;7065;50.880;5.502;2023-07-13T01:44:02;14.70;99.90
13982;DHT22;7065;50.880;5.502;2023-07-13T01:46:28;14.60;99.90
13982;DHT22;7065;50.880;5.502;2023-07-13T01:48:53;14.60;99.90
13982;DHT22;7065;50.880;5.502;2023-07-13T01:51:20;14.60;99.90
13982;DHT22;7065;50.880;5.502;2023-07-13T01:53:46;14.60;99.90
13982;DHT22;7065;50.880;5.502;2023-07-13T01:56:12;14.50;99.90
13982;DHT22;7065;50.880;5.502;2023-07-13T01:58:38;14.50;99.90
13982;DHT22;7065;50.880;5.502;2023-07-13T02:01:03;14.50;99.90
13982;DHT22;7065;50.880;5.502;2023-07-13T02:03:29;14.40;99.90
13982;DHT22;7065;50.880;5.502;2023-07-13T02:05:56;14.40;99.90
13982;DHT22;7065;50.880;5.502;2023-07-13T02:08:21;14.30;99.90
13982;DHT22;7065;50.880;5.502;2023-07-13T02:10:47;14.30;99.90
13982;DHT22;7065;50.880;5.502;2023-07-13T02:13:13;14.30;99.90
13982;DHT22;7065;50.880;5.502;2023-07-13T02:15:39;14.30;99.90
13982;DHT22;7065;50.880;5.502;2023-07-13T02:18:07;14.30;99.90
13982;DHT22;7065;50.880;5.502;2023-07-13T02:20:33;14.30;99.90
13982;DHT22;7065;50.880;5.502;2023-07-13T02:22:59;14.20;99.90
13982;DHT22;7065;50.880;5.502;2023-07-13T02:25:24;14.20;99.90
13982;DHT22;7065;50.880;5.502;2023-07-13T02:27:52;14.20;99.90
13982;DHT22;7065;50.880;5.502;2023-07-13T02:30:18;14.20;99.90
13982;DHT22;7065;50.880;5.502;2023-07-13T02:32:43;14.20;99.90
13982;DHT22;7065;50.880;5.502;2023-07-13T02:35:10;14.20;99.90
13982;DHT22;7065;50.880;5.502;2023-07-13T02:37:36;14.20;99.90
13982;DHT22;7065;50.880;5.502;2023-07-13T02:40:02;14.20;99.90
13982;DHT22;7065;50.880;5.502;2023-07-13T02:42:33;14.10;99.90
13982;DHT22;7065;50.880;5.502;2023-07-13T02:44:59;14.10;99.90
13982;DHT22;7065;50.880;5.502;2023-07-13T02:47:25;14.10;99.90
13982;DHT22;7065;50.880;5.502;2023-07-13T02:49:52;14.10;99.90
13982;DHT22;7065;50.880;5.502;2023-07-13T02:52:18;14.10;99.90
13982;DHT22;7065;50.880;5.502;2023-07-13T02:54:44;14.10;99.90
13982;DHT22;7065;50.880;5.502;2023-07-13T02:57:09;14.10;99.90
13982;DHT22;7065;50.880;5.502;2023-07-13T02:59:35;14.00;99.90
13982;DHT22;7065;50.880;5.502;2023-07-13T03:02:02;14.00;99.90
13982;DHT22;7065;50.880;5.502;2023-07-13T03:04:28;14.00;99.90
13982;DHT22;7065;50.880;5.502;2023-07-13T03:06:54;14.00;99.90
13982;DHT22;7065;50.880;5.502;2023-07-13T03:09:24;14.00;99.90
13982;DHT22;7065;50.880;5.502;2023-07-13T03:11:53;14.00;99.90
13982;DHT22;7065;50.880;5.502;2023-07-13T03:14:20;14.00;99.90
13982;DHT22;7065;50.880;5.502;2023-07-13T03:16:45;14.00;99.90
13982;DHT22;7065;50.880;5.502;2023-07-13T03:19:11;14.00;99.90
13982;DHT22;7065;50.880;5.502;2023-07-13T03:21:37;14.00;99.90
13982;DHT22;7065;50.880;5.502;2023-07-13T03:24:03;14.00;99.90
13982;DHT22;7065;50.880;5.502;2023-07-13T03:26:29;14.00;99.90
13982;DHT22;7065;50.880;5.502;2023-07-13T03:28:55;14.00;99.90
13982;DHT22;7065;50.880;5.502;2023-07-13T03:31:23;14.00;99.90
13982;DHT22;7065;50.880;5.502;2023-07-13T03:33:49;14.00;99.90
13982;DHT22;7065;50.880;5.502;2023-07-13T03:36:20;14.00;99.90
13982;DHT22;7065;50.880;5.502;2023-07-13T03:38:48;14.00;99.90
13982;DHT22;7065;50.880;5.502;2023-07-13T03:41:15;14.00;99.90
13982;DHT22;7065;50.880;5.502;2023-07-13T03:43:41;14.00;99.90
13982;DHT22;7065;50.880;5.502;2023-07-13T03:46:06;14.00;99.90
13982;DHT22;7065;50.880;5.502;2023-07-13T03:48:32;14.00;99.90
13982;DHT22;7065;50.880;5.502;2023-07-13T03:50:58;14.00;99.90
13982;DHT22;7065;50.880;5.502;2023-07-13T03:53:23;14.00;99.90
13982;DHT22;7065;50.880;5.502;2023-07-13T03:55:50;14.00;99.90
13982;DHT22;7065;50.880;5.502;2023-07-13T04:00:51;14.00;99.90
13982;DHT22;7065;50.880;5.502;2023-07-13T04:03:17;14.00;99.90
13982;DHT22;7065;50.880;5.502;2023-07-13T04:05:43;14.00;99.90
13982;DHT22;7065;50.880;5.502;2023-07-13T04:08:09;14.00;99.90
13982;DHT22;7065;50.880;5.502;2023-07-13T04:10:35;14.00;99.90
13982;DHT22;7065;50.880;5.502;2023-07-13T04:13:00;14.00;99.90
13982;DHT22;7065;50.880;5.502;2023-07-13T04:15:30;14.00;99.90
13982;DHT22;7065;50.880;5.502;2023-07-13T04:17:56;14.00;99.90
13982;DHT22;7065;50.880;5.502;2023-07-13T04:20:22;14.10;99.90
13982;DHT22;7065;50.880;5.502;2023-07-13T04:22:49;14.10;99.90
13982;DHT22;7065;50.880;5.502;2023-07-13T04:25:15;14.10;99.90
13982;DHT22;7065;50.880;5.502;2023-07-13T04:27:41;14.20;99.90
13982;DHT22;7065;50.880;5.502;2023-07-13T04:30:07;14.20;99.90
13982;DHT22;7065;50.880;5.502;2023-07-13T04:32:33;14.20;99.90
13982;DHT22;7065;50.880;5.502;2023-07-13T04:34:59;14.30;99.90
13982;DHT22;7065;50.880;5.502;2023-07-13T04:37:26;14.30;99.90
13982;DHT22;7065;50.880;5.502;2023-07-13T04:39:52;14.40;99.90
13982;DHT22;7065;50.880;5.502;2023-07-13T04:42:18;14.40;99.90
13982;DHT22;7065;50.880;5.502;2023-07-13T04:44:50;14.50;99.90
13982;DHT22;7065;50.880;5.502;2023-07-13T04:47:18;14.50;99.90
13982;DHT22;7065;50.880;5.502;2023-07-13T04:49:45;14.50;99.90
13982;DHT22;7065;50.880;5.502;2023-07-13T04:52:11;14.60;99.90
13982;DHT22;7065;50.880;5.502;2023-07-13T04:54:37;14.60;99.90
13982;DHT22;7065;50.880;5.502;2023-07-13T04:57:03;14.60;99.90
13982;DHT22;7065;50.880;5.502;2023-07-13T04:59:32;14.70;99.90
13982;DHT22;7065;50.880;5.502;2023-07-13T05:01:58;14.70;99.90
13982;DHT22;7065;50.880;5.502;2023-07-13T05:04:24;14.80;99.90
13982;DHT22;7065;50.880;5.502;2023-07-13T05:06:50;14.80;99.90
13982;DHT22;7065;50.880;5.502;2023-07-13T05:09:15;14.90;99.90
13982;DHT22;7065;50.880;5.502;2023-07-13T05:11:41;15.00;99.90
13982;DHT22;7065;50.880;5.502;2023-07-13T05:14:07;15.00;99.90
13982;DHT22;7065;50.880;5.502;2023-07-13T05:16:35;15.00;99.90
13982;DHT22;7065;50.880;5.502;2023-07-13T05:19:00;15.10;99.90
13982;DHT22;7065;50.880;5.502;2023-07-13T05:21:26;15.10;99.90
13982;DHT22;7065;50.880;5.502;2023-07-13T05:23:52;15.20;99.90
13982;DHT22;7065;50.880;5.502;2023-07-13T05:26:18;15.20;99.90
13982;DHT22;7065;50.880;5.502;2023-07-13T05:28:46;15.20;99.90
13982;DHT22;7065;50.880;5.502;2023-07-13T05:31:12;15.20;99.90
13982;DHT22;7065;50.880;5.502;2023-07-13T05:33:37;15.20;99.90
13982;DHT22;7065;50.880;5.502;2023-07-13T05:36:03;15.30;99.90
13982;DHT22;7065;50.880;5.502;2023-07-13T05:38:29;15.30;99.90
13982;DHT22;7065;50.880;5.502;2023-07-13T05:40:56;15.30;99.90
13982;DHT22;7065;50.880;5.502;2023-07-13T05:43:22;15.40;99.90
13982;DHT22;7065;50.880;5.502;2023-07-13T05:45:48;15.40;99.90
13982;DHT22;7065;50.880;5.502;2023-07-13T05:48:14;15.50;99.90
13982;DHT22;7065;50.880;5.502;2023-07-13T05:50:40;15.50;99.90
13982;DHT22;7065;50.880;5.502;2023-07-13T05:53:06;15.60;99.90
13982;DHT22;7065;50.880;5.502;2023-07-13T05:55:33;15.60;99.90
13982;DHT22;7065;50.880;5.502;2023-07-13T05:57:59;15.60;99.90
13982;DHT22;7065;50.880;5.502;2023-07-13T06:00:25;15.70;99.90
13982;DHT22;7065;50.880;5.502;2023-07-13T06:02:51;15.70;99.90
13982;DHT22;7065;50.880;5.502;2023-07-13T06:05:17;15.80;99.90
13982;DHT22;7065;50.880;5.502;2023-07-13T06:07:43;15.80;99.90
13982;DHT22;7065;50.880;5.502;2023-07-13T06:10:10;15.80;99.90
13982;DHT22;7065;50.880;5.502;2023-07-13T06:12:35;15.90;99.90
13982;DHT22;7065;50.880;5.502;2023-07-13T06:15:01;15.90;99.90
13982;DHT22;7065;50.880;5.502;2023-07-13T06:17:27;16.00;99.90
13982;DHT22;7065;50.880;5.502;2023-07-13T06:19:52;16.10;99.90
13982;DHT22;7065;50.880;5.502;2023-07-13T06:22:18;16.20;99.90
13982;DHT22;7065;50.880;5.502;2023-07-13T06:24:44;16.20;99.90
13982;DHT22;7065;50.880;5.502;2023-07-13T06:27:09;16.20;99.90
13982;DHT22;7065;50.880;5.502;2023-07-13T06:29:35;16.30;99.90
13982;DHT22;7065;50.880;5.502;2023-07-13T06:32:01;16.40;99.90
13982;DHT22;7065;50.880;5.502;2023-07-13T06:34:27;16.40;99.90
13982;DHT22;7065;50.880;5.502;2023-07-13T06:36:53;16.40;99.90
13982;DHT22;7065;50.880;5.502;2023-07-13T06:39:19;16.50;99.90
13982;DHT22;7065;50.880;5.502;2023-07-13T06:41:44;16.50;99.90
13982;DHT22;7065;50.880;5.502;2023-07-13T06:44:10;16.50;99.90
13982;DHT22;7065;50.880;5.502;2023-07-13T06:46:37;16.60;99.90
13982;DHT22;7065;50.880;5.502;2023-07-13T06:49:03;16.60;99.90
13982;DHT22;7065;50.880;5.502;2023-07-13T06:51:28;16.60;99.90
13982;DHT22;7065;50.880;5.502;2023-07-13T06:53:54;16.70;99.90
13982;DHT22;7065;50.880;5.502;2023-07-13T06:56:21;16.90;99.90
13982;DHT22;7065;50.880;5.502;2023-07-13T06:58:47;16.90;99.90
13982;DHT22;7065;50.880;5.502;2023-07-13T07:01:12;16.90;99.90
13982;DHT22;7065;50.880;5.502;2023-07-13T07:03:38;17.00;99.90
13982;DHT22;7065;50.880;5.502;2023-07-13T07:06:15;17.10;99.90
13982;DHT22;7065;50.880;5.502;2023-07-13T07:08:41;17.10;99.90
13982;DHT22;7065;50.880;5.502;2023-07-13T07:11:11;17.10;99.90
13982;DHT22;7065;50.880;5.502;2023-07-13T07:13:37;17.20;99.90
13982;DHT22;7065;50.880;5.502;2023-07-13T07:16:03;17.20;99.90
13982;DHT22;7065;50.880;5.502;2023-07-13T07:18:29;17.20;99.90
13982;DHT22;7065;50.880;5.502;2023-07-13T07:20:54;17.20;99.90
13982;DHT22;7065;50.880;5.502;2023-07-13T07:23:21;17.10;99.90
13982;DHT22;7065;50.880;5.502;2023-07-13T07:25:47;17.10;99.90
13982;DHT22;7065;50.880;5.502;2023-07-13T07:28:15;17.00;99.90
13982;DHT22;7065;50.880;5.502;2023-07-13T07:30:46;17.00;99.90
13982;DHT22;7065;50.880;5.502;2023-07-13T07:33:12;17.10;99.90
13982;DHT22;7065;50.880;5.502;2023-07-13T07:35:38;17.10;99.90
13982;DHT22;7065;50.880;5.502;2023-07-13T07:38:03;17.10;99.90
13982;DHT22;7065;50.880;5.502;2023-07-13T07:40:29;17.10;99.90
13982;DHT22;7065;50.880;5.502;2023-07-13T07:42:55;17.10;99.90
13982;DHT22;7065;50.880;5.502;2023-07-13T07:45:21;17.10;99.90
13982;DHT22;7065;50.880;5.502;2023-07-13T07:47:46;17.10;99.90
13982;DHT22;7065;50.880;5.502;2023-07-13T07:50:12;17.20;99.90
13982;DHT22;7065;50.880;5.502;2023-07-13T07:52:38;17.30;99.90
13982;DHT22;7065;50.880;5.502;2023-07-13T07:55:06;17.40;99.90
13982;DHT22;7065;50.880;5.502;2023-07-13T07:57:32;17.50;99.90
13982;DHT22;7065;50.880;5.502;2023-07-13T07:59:58;17.50;99.90
13982;DHT22;7065;50.880;5.502;2023-07-13T08:02:25;17.60;99.90
13982;DHT22;7065;50.880;5.502;2023-07-13T08:04:51;17.80;99.90
13982;DHT22;7065;50.880;5.502;2023-07-13T08:07:18;18.00;99.90
13982;DHT22;7065;50.880;5.502;2023-07-13T08:09:43;18.10;99.90
13982;DHT22;7065;50.880;5.502;2023-07-13T08:12:09;18.20;99.90
13982;DHT22;7065;50.880;5.502;2023-07-13T08:14:35;18.20;99.90
13982;DHT22;7065;50.880;5.502;2023-07-13T08:17:01;18.30;99.90
13982;DHT22;7065;50.880;5.502;2023-07-13T08:19:26;18.30;99.90
13982;DHT22;7065;50.880;5.502;2023-07-13T08:21:52;18.30;99.90
13982;DHT22;7065;50.880;5.502;2023-07-13T08:24:18;18.40;99.90
13982;DHT22;7065;50.880;5.502;2023-07-13T08:26:44;18.50;99.90
13982;DHT22;7065;50.880;5.502;2023-07-13T08:29:11;18.50;99.90
13982;DHT22;7065;50.880;5.502;2023-07-13T08:31:37;18.50;99.90
13982;DHT22;7065;50.880;5.502;2023-07-13T08:34:03;18.60;99.90
13982;DHT22;7065;50.880;5.502;2023-07-13T08:36:29;18.70;99.90
13982;DHT22;7065;50.880;5.502;2023-07-13T08:38:55;18.80;99.90
13982;DHT22;7065;50.880;5.502;2023-07-13T08:41:21;18.90;99.90
13982;DHT22;7065;50.880;5.502;2023-07-13T08:43:50;18.90;99.90
13982;DHT22;7065;50.880;5.502;2023-07-13T08:49:01;19.20;99.90
13982;DHT22;7065;50.880;5.502;2023-07-13T08:51:46;19.30;99.90
13982;DHT22;7065;50.880;5.502;2023-07-13T08:54:28;19.40;99.90
13982;DHT22;7065;50.880;5.502;2023-07-13T08:56:56;19.40;99.90
13982;DHT22;7065;50.880;5.502;2023-07-13T08:59:26;19.50;99.90
13982;DHT22;7065;50.880;5.502;2023-07-13T09:04:37;19.60;99.90
13982;DHT22;7065;50.880;5.502;2023-07-13T09:12:19;19.70;99.90
13982;DHT22;7065;50.880;5.502;2023-07-13T09:14:50;19.70;99.90
13982;DHT22;7065;50.880;5.502;2023-07-13T09:17:21;19.60;99.90
13982;DHT22;7065;50.880;5.502;2023-07-13T09:19:56;19.70;99.90
13982;DHT22;7065;50.880;5.502;2023-07-13T09:22:25;19.70;99.90
13982;DHT22;7065;50.880;5.502;2023-07-13T09:25:18;19.70;99.90
13982;DHT22;7065;50.880;5.502;2023-07-13T09:27:47;19.70;99.90
13982;DHT22;7065;50.880;5.502;2023-07-13T09:32:41;19.80;99.90
13982;DHT22;7065;50.880;5.502;2023-07-13T09:35:12;19.80;99.90
13982;DHT22;7065;50.880;5.502;2023-07-13T09:37:43;19.90;99.90
13982;DHT22;7065;50.880;5.502;2023-07-13T09:40:17;19.80;99.90
13982;DHT22;7065;50.880;5.502;2023-07-13T09:42:46;19.70;99.90
13982;DHT22;7065;50.880;5.502;2023-07-13T09:45:26;19.80;99.90
13982;DHT22;7065;50.880;5.502;2023-07-13T09:48:11;19.90;99.90
13982;DHT22;7065;50.880;5.502;2023-07-13T09:50:39;19.90;99.90
13982;DHT22;7065;50.880;5.502;2023-07-13T09:53:18;20.00;99.90
13982;DHT22;7065;50.880;5.502;2023-07-13T09:55:45;20.00;99.90
13982;DHT22;7065;50.880;5.502;2023-07-13T09:58:12;20.20;99.90
13982;DHT22;7065;50.880;5.502;2023-07-13T10:00:39;20.30;99.90
13982;DHT22;7065;50.880;5.502;2023-07-13T10:03:22;20.60;99.90
13982;DHT22;7065;50.880;5.502;2023-07-13T10:05:51;20.60;99.90
13982;DHT22;7065;50.880;5.502;2023-07-13T10:08:19;20.70;99.90
13982;DHT22;7065;50.880;5.502;2023-07-13T10:10:46;20.50;99.90
13982;DHT22;7065;50.880;5.502;2023-07-13T10:13:27;20.50;99.90
13982;DHT22;7065;50.880;5.502;2023-07-13T10:15:54;20.60;99.90
13982;DHT22;7065;50.880;5.502;2023-07-13T10:18:22;20.60;99.90
13982;DHT22;7065;50.880;5.502;2023-07-13T10:20:51;20.60;99.90
13982;DHT22;7065;50.880;5.502;2023-07-13T10:23:21;20.60;99.90
13982;DHT22;7065;50.880;5.502;2023-07-13T10:25:51;20.80;99.90
13982;DHT22;7065;50.880;5.502;2023-07-13T10:28:33;21.00;99.90
13982;DHT22;7065;50.880;5.502;2023-07-13T10:31:01;21.00;99.90
13982;DHT22;7065;50.880;5.502;2023-07-13T10:33:28;21.00;99.90
13982;DHT22;7065;50.880;5.502;2023-07-13T10:38:41;20.80;99.90
13982;DHT22;7065;50.880;5.502;2023-07-13T10:41:14;20.90;99.90
13982;DHT22;7065;50.880;5.502;2023-07-13T10:43:46;21.00;99.90
13982;DHT22;7065;50.880;5.502;2023-07-13T10:46:17;21.10;99.90
13982;DHT22;7065;50.880;5.502;2023-07-13T10:48:46;21.20;99.90
13982;DHT22;7065;50.880;5.502;2023-07-13T10:51:14;21.20;99.90
13982;DHT22;7065;50.880;5.502;2023-07-13T10:53:40;21.20;99.90
13982;DHT22;7065;50.880;5.502;2023-07-13T10:58:45;21.40;99.90
13982;DHT22;7065;50.880;5.502;2023-07-13T11:01:17;21.60;99.90
13982;DHT22;7065;50.880;5.502;2023-07-13T11:03:50;21.60;99.90
13982;DHT22;7065;50.880;5.502;2023-07-13T11:08:55;21.50;99.90
13982;DHT22;7065;50.880;5.502;2023-07-13T11:18:50;21.50;99.90
13982;DHT22;7065;50.880;5.502;2023-07-13T11:21:21;21.50;99.90
13982;DHT22;7065;50.880;5.502;2023-07-13T11:31:41;21.20;99.90
13982;DHT22;7065;50.880;5.502;2023-07-13T11:34:14;21.20;99.90
13982;DHT22;7065;50.880;5.502;2023-07-13T11:36:43;21.20;99.90
13982;DHT22;7065;50.880;5.502;2023-07-13T11:41:53;21.10;99.90
13982;DHT22;7065;50.880;5.502;2023-07-13T11:44:22;21.10;99.90
13982;DHT22;7065;50.880;5.502;2023-07-13T11:46:56;21.10;99.90
13982;DHT22;7065;50.880;5.502;2023-07-13T11:49:24;21.10;99.90
13982;DHT22;7065;50.880;5.502;2023-07-13T11:51:52;21.20;99.90
13982;DHT22;7065;50.880;5.502;2023-07-13T11:57:41;21.40;99.90
13982;DHT22;7065;50.880;5.502;2023-07-13T11:59:50;21.70;99.90
13982;DHT22;7065;50.880;5.502;2023-07-13T12:02:22;21.90;99.90
13982;DHT22;7065;50.880;5.502;2023-07-13T12:04:51;22.10;99.90
13982;DHT22;7065;50.880;5.502;2023-07-13T12:07:18;22.20;99.90
13982;DHT22;7065;50.880;5.502;2023-07-13T12:09:45;22.20;99.90
13982;DHT22;7065;50.880;5.502;2023-07-13T12:12:18;22.20;99.90
13982;DHT22;7065;50.880;5.502;2023-07-13T12:14:43;22.30;99.90
13982;DHT22;7065;50.880;5.502;2023-07-13T12:17:20;22.50;99.90
13982;DHT22;7065;50.880;5.502;2023-07-13T12:19:47;22.70;99.90
13982;DHT22;7065;50.880;5.502;2023-07-13T12:22:16;22.70;99.90
13982;DHT22;7065;50.880;5.502;2023-07-13T12:24:43;22.70;99.90
13982;DHT22;7065;50.880;5.502;2023-07-13T12:29:58;22.90;99.90
13982;DHT22;7065;50.880;5.502;2023-07-13T12:32:26;22.90;99.90
13982;DHT22;7065;50.880;5.502;2023-07-13T12:34:56;22.90;99.90
13982;DHT22;7065;50.880;5.502;2023-07-13T12:37:23;23.00;99.90
13982;DHT22;7065;50.880;5.502;2023-07-13T12:39:50;23.10;99.90
13982;DHT22;7065;50.880;5.502;2023-07-13T12:42:25;23.20;99.90
13982;DHT22;7065;50.880;5.502;2023-07-13T12:47:27;23.20;99.90
13982;DHT22;7065;50.880;5.502;2023-07-13T12:49:59;23.20;99.90
13982;DHT22;7065;50.880;5.502;2023-07-13T12:52:34;23.50;99.90
13982;DHT22;7065;50.880;5.502;2023-07-13T12:55:06;23.60;99.90
13982;DHT22;7065;50.880;5.502;2023-07-13T12:57:40;23.60;99.90
13982;DHT22;7065;50.880;5.502;2023-07-13T13:00:22;23.70;99.90
13982;DHT22;7065;50.880;5.502;2023-07-13T13:02:51;23.80;99.90
13982;DHT22;7065;50.880;5.502;2023-07-13T13:05:17;23.70;99.90
13982;DHT22;7065;50.880;5.502;2023-07-13T13:07:43;23.60;99.90
13982;DHT22;7065;50.880;5.502;2023-07-13T13:10:13;23.70;99.90
13982;DHT22;7065;50.880;5.502;2023-07-13T13:12:39;23.60;99.90
13982;DHT22;7065;50.880;5.502;2023-07-13T13:15:09;23.40;99.90
13982;DHT22;7065;50.880;5.502;2023-07-13T13:17:35;23.50;99.90
13982;DHT22;7065;50.880;5.502;2023-07-13T13:20:01;23.50;99.90
13982;DHT22;7065;50.880;5.502;2023-07-13T13:22:26;23.30;99.90
13982;DHT22;7065;50.880;5.502;2023-07-13T13:24:52;23.10;99.90
13982;DHT22;7065;50.880;5.502;2023-07-13T13:27:21;23.10;99.90
13982;DHT22;7065;50.880;5.502;2023-07-13T13:29:49;23.10;99.90
13982;DHT22;7065;50.880;5.502;2023-07-13T13:32:17;23.10;99.90
13982;DHT22;7065;50.880;5.502;2023-07-13T13:34:44;23.10;99.90
13982;DHT22;7065;50.880;5.502;2023-07-13T13:37:22;23.30;99.90
13982;DHT22;7065;50.880;5.502;2023-07-13T13:39:48;23.20;99.90
13982;DHT22;7065;50.880;5.502;2023-07-13T13:42:14;23.10;99.90
13982;DHT22;7065;50.880;5.502;2023-07-13T13:44:40;23.00;99.90
13982;DHT22;7065;50.880;5.502;2023-07-13T13:47:33;22.80;99.90
13982;DHT22;7065;50.880;5.502;2023-07-13T13:50:04;22.50;99.90
13982;DHT22;7065;50.880;5.502;2023-07-13T13:52:35;22.50;99.90
13982;DHT22;7065;50.880;5.502;2023-07-13T13:55:01;22.50;99.90
13982;DHT22;7065;50.880;5.502;2023-07-13T13:57:27;22.60;99.90
13982;DHT22;7065;50.880;5.502;2023-07-13T13:59:53;22.60;99.90
13982;DHT22;7065;50.880;5.502;2023-07-13T14:02:25;22.50;99.90
13982;DHT22;7065;50.880;5.502;2023-07-13T14:04:57;22.30;99.90
13982;DHT22;7065;50.880;5.502;2023-07-13T14:07:25;22.10;99.90
13982;DHT22;7065;50.880;5.502;2023-07-13T14:09:52;21.70;99.90
13982;DHT22;7065;50.880;5.502;2023-07-13T14:12:18;21.40;99.90
13982;DHT22;7065;50.880;5.502;2023-07-13T14:14:44;21.20;99.90
13982;DHT22;7065;50.880;5.502;2023-07-13T14:17:36;21.00;99.90
13982;DHT22;7065;50.880;5.502;2023-07-13T14:20:01;20.70;99.90
13982;DHT22;7065;50.880;5.502;2023-07-13T14:22:29;20.60;99.90
13982;DHT22;7065;50.880;5.502;2023-07-13T14:24:55;20.50;99.90
13982;DHT22;7065;50.880;5.502;2023-07-13T14:27:24;20.50;99.90
13982;DHT22;7065;50.880;5.502;2023-07-13T14:29:50;20.40;99.90
13982;DHT22;7065;50.880;5.502;2023-07-13T14:32:16;20.40;99.90
13982;DHT22;7065;50.880;5.502;2023-07-13T14:34:42;20.40;99.90
13982;DHT22;7065;50.880;5.502;2023-07-13T14:37:14;20.50;99.90
13982;DHT22;7065;50.880;5.502;2023-07-13T14:39:43;20.60;99.90
13982;DHT22;7065;50.880;5.502;2023-07-13T14:42:10;20.80;99.90
13982;DHT22;7065;50.880;5.502;2023-07-13T14:44:37;20.90;99.90
13982;DHT22;7065;50.880;5.502;2023-07-13T14:47:05;21.00;99.90
13982;DHT22;7065;50.880;5.502;2023-07-13T14:52:22;21.20;99.90
13982;DHT22;7065;50.880;5.502;2023-07-13T14:54:48;21.10;99.90
13982;DHT22;7065;50.880;5.502;2023-07-13T14:57:17;21.10;99.90
13982;DHT22;7065;50.880;5.502;2023-07-13T14:59:44;21.30;99.90
13982;DHT22;7065;50.880;5.502;2023-07-13T15:04:49;22.00;99.90
13982;DHT22;7065;50.880;5.502;2023-07-13T15:07:15;22.10;99.90
13982;DHT22;7065;50.880;5.502;2023-07-13T15:09:43;22.30;99.90
13982;DHT22;7065;50.880;5.502;2023-07-13T15:12:09;22.50;99.90
13982;DHT22;7065;50.880;5.502;2023-07-13T15:14:35;22.80;99.90
13982;DHT22;7065;50.880;5.502;2023-07-13T15:17:01;23.10;99.90
13982;DHT22;7065;50.880;5.502;2023-07-13T15:19:27;23.40;99.90
13982;DHT22;7065;50.880;5.502;2023-07-13T15:21:55;23.60;99.90
13982;DHT22;7065;50.880;5.502;2023-07-13T15:24:23;23.80;99.90
13982;DHT22;7065;50.880;5.502;2023-07-13T15:26:50;23.80;99.90
13982;DHT22;7065;50.880;5.502;2023-07-13T15:29:16;23.80;99.90
13982;DHT22;7065;50.880;5.502;2023-07-13T15:31:42;23.80;99.90
13982;DHT22;7065;50.880;5.502;2023-07-13T15:34:16;23.90;99.90
13982;DHT22;7065;50.880;5.502;2023-07-13T15:36:44;24.20;99.90
13982;DHT22;7065;50.880;5.502;2023-07-13T15:39:14;24.70;99.90
13982;DHT22;7065;50.880;5.502;2023-07-13T15:41:42;25.40;99.90
13982;DHT22;7065;50.880;5.502;2023-07-13T15:44:25;26.00;99.90
13982;DHT22;7065;50.880;5.502;2023-07-13T15:46:51;26.40;99.90
13982;DHT22;7065;50.880;5.502;2023-07-13T15:49:17;26.90;99.90
13982;DHT22;7065;50.880;5.502;2023-07-13T15:51:42;27.70;99.90
13982;DHT22;7065;50.880;5.502;2023-07-13T15:54:13;28.50;99.90
13982;DHT22;7065;50.880;5.502;2023-07-13T15:56:39;29.40;99.90
13982;DHT22;7065;50.880;5.502;2023-07-13T15:59:09;30.00;99.90
13982;DHT22;7065;50.880;5.502;2023-07-13T16:01:38;30.10;99.90
13982;DHT22;7065;50.880;5.502;2023-07-13T16:04:04;30.40;99.90
13982;DHT22;7065;50.880;5.502;2023-07-13T16:06:36;30.60;99.90
13982;DHT22;7065;50.880;5.502;2023-07-13T16:09:03;30.80;99.90
13982;DHT22;7065;50.880;5.502;2023-07-13T16:11:36;30.50;99.90
13982;DHT22;7065;50.880;5.502;2023-07-13T16:14:02;30.20;99.90
13982;DHT22;7065;50.880;5.502;2023-07-13T16:16:30;30.20;99.90
13982;DHT22;7065;50.880;5.502;2023-07-13T16:18:58;29.70;99.90
13982;DHT22;7065;50.880;5.502;2023-07-13T16:21:29;29.50;99.90
13982;DHT22;7065;50.880;5.502;2023-07-13T16:23:55;29.80;99.90
13982;DHT22;7065;50.880;5.502;2023-07-13T16:26:29;30.30;99.90
13982;DHT22;7065;50.880;5.502;2023-07-13T16:29:09;30.80;99.90
13982;DHT22;7065;50.880;5.502;2023-07-13T16:31:35;30.20;99.90
13982;DHT22;7065;50.880;5.502;2023-07-13T16:34:01;29.40;99.90
13982;DHT22;7065;50.880;5.502;2023-07-13T16:36:28;28.60;99.90
13982;DHT22;7065;50.880;5.502;2023-07-13T16:38:55;28.00;99.90
13982;DHT22;7065;50.880;5.502;2023-07-13T16:41:21;27.30;99.90
13982;DHT22;7065;50.880;5.502;2023-07-13T16:43:46;26.80;99.90
13982;DHT22;7065;50.880;5.502;2023-07-13T16:46:14;26.50;99.90